Time;durP1;ratioP1;P1;durP2;ratioP2;P2;SDS_P1;SDS_P2;PMS_P1;PMS_P2;Temp;Humidity;BMP_temperature;BMP_pressure;BME280_temperature;BME280_humidity;BME280_pressure;Samples;Min_cycle;Max_cycle;Signal;HPM_P1;HPM_P2
2021/12/22 00:00:25;;;;;;;23.40;10.60;;;;;;;-10.08;77.22;99744.29;106426;1317;23171;-69
2021/12/22 00:02:53;;;;;;;29.50;11.50;;;;;;;-10.05;77.33;99747.42;106453;1320;139432;-69
2021/12/22 00:05:25;;;;;;;24.80;10.90;;;;;;;-10.04;77.21;99752.05;106588;1319;23279;-69
2021/12/22 00:07:53;;;;;;;20.10;10.00;;;;;;;-10.04;77.12;99755.17;106433;1313;139892;-69
2021/12/22 00:10:21;;;;;;;22.40;10.30;;;;;;;-10.03;76.99;99754.48;106563;1313;25595;-69
2021/12/22 00:12:50;;;;;;;24.80;12.40;;;;;;;-10.04;76.96;99755.92;106585;1313;22544;-69
2021/12/22 00:15:18;;;;;;;26.90;10.40;;;;;;;-10.05;77.00;99759.02;106435;1319;139469;-68
2021/12/22 00:17:48;;;;;;;26.20;11.80;;;;;;;-10.07;76.84;99756.69;106608;1318;22494;-69
2021/12/22 00:20:16;;;;;;;30.00;12.60;;;;;;;-10.08;76.83;99756.59;106433;1317;139785;-69
2021/12/22 00:22:44;;;;;;;26.20;11.90;;;;;;;-10.11;76.43;99754.93;106550;1319;22486;-69
2021/12/22 00:25:12;;;;;;;24.60;12.10;;;;;;;-10.11;76.36;99760.38;106450;1313;140192;-69
2021/12/22 00:27:39;;;;;;;24.50;12.30;;;;;;;-10.15;76.25;99762.27;106593;1313;22539;-70
2021/12/22 00:30:08;;;;;;;32.90;16.00;;;;;;;-10.18;76.30;99768.86;106549;1319;23533;-69
2021/12/22 00:32:37;;;;;;;31.00;16.60;;;;;;;-10.25;76.17;99772.23;106496;1313;138681;-69
2021/12/22 00:35:06;;;;;;;30.90;17.30;;;;;;;-10.27;76.54;99774.35;106590;1318;23577;-69
2021/12/22 00:37:45;;;;;;;28.50;14.40;;;;;;;-10.26;76.75;99775.84;106449;1318;139154;-69
2021/12/22 00:40:13;;;;;;;35.40;17.80;;;;;;;-10.25;76.84;99777.55;106543;1313;22460;-69
2021/12/22 00:42:42;;;;;;;72.30;31.30;;;;;;;-10.23;76.99;99778.53;106527;1319;23313;-70
2021/12/22 00:45:11;;;;;;;80.10;34.20;;;;;;;-10.21;76.84;99777.52;106403;1316;139478;-68
2021/12/22 00:47:39;;;;;;;74.20;29.60;;;;;;;-10.19;76.80;99777.20;106435;1314;170548;-66
2021/12/22 00:50:07;;;;;;;102.10;38.60;;;;;;;-10.17;77.06;99779.13;106481;1313;139264;-66
2021/12/22 00:52:37;;;;;;;153.00;50.30;;;;;;;-10.16;76.89;99782.19;106489;1317;23218;-66
2021/12/22 00:55:05;;;;;;;123.10;41.20;;;;;;;-10.17;77.06;99784.04;106437;1319;139276;-66
2021/12/22 00:57:37;;;;;;;174.20;51.80;;;;;;;-10.20;76.73;99786.55;106544;1319;22461;-66
2021/12/22 01:00:07;;;;;;;127.00;39.80;;;;;;;-10.21;76.74;99787.91;106585;1313;22527;-66
2021/12/22 01:02:37;;;;;;;80.20;25.30;;;;;;;-10.23;76.87;99785.98;106437;1313;138901;-65
2021/12/22 01:05:06;;;;;;;59.60;20.20;;;;;;;-10.23;76.78;99790.33;106360;1319;22709;-65
2021/12/22 01:07:41;;;;;;;105.40;38.80;;;;;;;-10.24;76.64;99795.38;106359;1314;139205;-64
2021/12/22 01:10:19;;;;;;;128.70;42.90;;;;;;;-10.27;76.89;99791.73;106574;1313;22485;-65
2021/12/22 01:12:47;;;;;;;190.50;62.40;;;;;;;-10.30;76.57;99792.28;105888;1319;22537;-66
2021/12/22 01:15:15;;;;;;;204.80;64.20;;;;;;;-10.36;76.58;99791.20;106485;1319;140133;-65
2021/12/22 01:17:47;;;;;;;133.80;40.60;;;;;;;-10.42;76.68;99792.83;106501;1316;22383;-65
2021/12/22 01:20:25;;;;;;;123.30;39.40;;;;;;;-10.42;76.95;99796.41;106476;1313;139085;-65
2021/12/22 01:23:01;;;;;;;113.90;38.60;;;;;;;-10.44;76.74;99795.98;106569;1316;23229;-65
2021/12/22 01:25:31;;;;;;;90.90;29.30;;;;;;;-10.47;77.20;99796.23;105863;1317;139775;-67
2021/12/22 01:27:59;;;;;;;140.40;45.00;;;;;;;-10.49;76.96;99798.52;106558;1317;22511;-67
2021/12/22 01:30:30;;;;;;;127.50;45.70;;;;;;;-10.55;77.12;99798.27;106576;1313;22451;-68
2021/12/22 01:32:59;;;;;;;121.40;40.00;;;;;;;-10.60;77.04;99800.39;106467;1319;139071;-69
2021/12/22 01:35:30;;;;;;;83.90;26.80;;;;;;;-10.65;77.13;99804.10;106576;1319;22479;-69
2021/12/22 01:37:58;;;;;;;103.70;35.30;;;;;;;-10.69;76.98;99803.40;106473;1319;138830;-69
2021/12/22 01:40:26;;;;;;;112.30;37.20;;;;;;;-10.72;77.22;99808.54;106528;1319;22602;-68
2021/12/22 01:42:55;;;;;;;123.00;43.20;;;;;;;-10.71;77.52;99814.06;106477;1317;23501;-68
2021/12/22 01:51:41;;;;;;;43.30;19.20;;;;;;;-10.76;77.28;99822.36;106263;1319;138995;-70
2021/12/22 01:54:38;;;;;;;48.70;22.50;;;;;;;-10.76;77.65;99825.14;106586;1319;22487;-70
2021/12/22 01:57:10;;;;;;;45.70;21.50;;;;;;;-10.75;77.65;99824.69;106456;1319;139769;-70
2021/12/22 01:59:40;;;;;;;35.90;16.80;;;;;;;-10.75;77.62;99830.36;106205;1317;22492;-70
2021/12/22 02:02:09;;;;;;;47.80;21.60;;;;;;;-10.78;77.57;99834.60;106513;1319;140454;-69
2021/12/22 02:04:38;;;;;;;45.30;18.80;;;;;;;-10.80;77.60;99833.48;106568;1319;22601;-69
2021/12/22 02:07:09;;;;;;;36.00;15.60;;;;;;;-10.82;77.53;99839.63;106589;1319;22618;-70
2021/12/22 02:10:04;;;;;;;33.40;16.30;;;;;;;-10.83;77.79;99838.48;106459;1319;139113;-69
2021/12/22 02:12:39;;;;;;;36.00;17.30;;;;;;;-10.87;77.59;99839.83;106575;1316;22455;-69
2021/12/22 02:15:07;;;;;;;32.80;14.80;;;;;;;-10.91;77.59;99840.33;106460;1319;138769;-69
2021/12/22 02:17:36;;;;;;;29.20;13.60;;;;;;;-10.92;77.68;99839.15;106448;1315;23268;-69
2021/12/22 02:20:04;;;;;;;31.50;14.50;;;;;;;-10.92;77.84;99838.67;106471;1319;140936;-69
2021/12/22 02:22:34;;;;;;;35.40;14.90;;;;;;;-10.94;77.83;99838.40;106513;1319;22933;-69
2021/12/22 02:25:11;;;;;;;31.30;13.80;;;;;;;-10.96;77.77;99836.86;105049;1320;26257;-68
2021/12/22 02:27:46;;;;;;;23.70;11.80;;;;;;;-10.97;78.02;99835.36;102548;1317;139807;-68
2021/12/22 02:30:21;;;;;;;26.00;12.50;;;;;;;-10.96;78.01;99837.58;102721;1318;22550;-67
2021/12/22 02:35:28;;;;;;;22.00;11.60;;;;;;;-11.03;77.56;99838.42;102539;1319;25463;-68
2021/12/22 02:37:58;;;;;;;20.80;10.20;;;;;;;-11.10;78.09;99838.20;102421;1319;139200;-68
2021/12/22 02:40:27;;;;;;;22.10;10.80;;;;;;;-11.10;78.11;99839.39;102520;1319;24253;-68
2021/12/22 02:43:04;;;;;;;20.00;10.80;;;;;;;-11.13;77.93;99840.69;102500;1318;22612;-68
2021/12/22 02:45:33;;;;;;;;;;;;;;;-11.19;78.17;99841.67;102336;1320;140830;-68
2021/12/22 02:48:02;;;;;;;20.60;9.20;;;;;;;-11.22;78.06;99843.84;102804;1317;22567;-70
2021/12/22 02:50:36;;;;;;;20.10;9.00;;;;;;;-11.26;78.07;99843.99;102594;1317;138980;-69
2021/12/22 02:53:15;;;;;;;17.60;8.80;;;;;;;-11.30;78.15;99843.59;102538;1319;25302;-68
2021/12/22 02:58:19;;;;;;;20.50;9.70;;;;;;;-11.30;78.24;99848.66;102646;1319;24243;-68
2021/12/22 03:01:06;;;;;;;18.90;9.40;;;;;;;-11.30;78.65;99850.05;106471;1319;22547;-68
2021/12/22 03:06:09;;;;;;;25.20;11.40;;;;;;;-11.29;78.37;99850.52;106211;1317;22649;-70
2021/12/22 03:08:40;;;;;;;26.10;11.00;;;;;;;-11.30;78.59;99859.69;106452;1317;139863;-69
2021/12/22 03:11:09;;;;;;;29.30;11.60;;;;;;;-11.30;78.83;99861.63;106539;1313;22441;-69
2021/12/22 03:13:37;;;;;;;25.10;10.50;;;;;;;-11.29;78.60;99862.77;106462;1318;140127;-69
2021/12/22 03:16:05;;;;;;;18.00;8.40;;;;;;;-11.31;78.54;99862.56;106557;1313;22538;-69
2021/12/22 03:18:34;;;;;;;30.50;12.20;;;;;;;-11.34;78.60;99865.08;106600;1313;22416;-70
2021/12/22 03:21:16;;;;;;;29.80;12.50;;;;;;;-11.33;78.54;99870.10;106460;1313;138792;-70
2021/12/22 03:23:44;;;;;;;25.70;10.90;;;;;;;-11.35;78.42;99869.20;106421;1316;22231;-70
2021/12/22 03:26:14;;;;;;;20.40;10.00;;;;;;;-11.36;78.43;99870.61;106439;1313;139832;-69
2021/12/22 03:28:50;;;;;;;20.50;9.40;;;;;;;-11.36;78.55;99871.66;106512;1317;22491;-69
2021/12/22 03:31:18;;;;;;;16.60;8.60;;;;;;;-11.37;78.24;99870.39;106472;1313;139700;-68
2021/12/22 03:33:46;;;;;;;13.60;6.60;;;;;;;-11.40;77.97;99876.40;106557;1313;23636;-68
2021/12/22 03:36:14;;;;;;;14.90;7.10;;;;;;;-11.46;78.16;99878.88;106555;1313;22634;-68
2021/12/22 03:38:43;;;;;;;15.70;7.90;;;;;;;-11.49;77.72;99879.80;106432;1313;139803;-68
2021/12/22 03:41:10;;;;;;;15.00;7.80;;;;;;;-11.51;77.95;99884.02;106557;1313;22474;-68
2021/12/22 03:43:38;;;;;;;13.20;6.40;;;;;;;-11.50;78.08;99886.23;106494;1313;137709;-69
2021/12/22 03:46:07;;;;;;;12.30;7.20;;;;;;;-11.51;77.98;99889.76;106570;1313;23503;-69
2021/12/22 03:48:35;;;;;;;13.00;6.30;;;;;;;-11.50;77.70;99894.23;106567;1313;23129;-69
2021/12/22 03:51:03;;;;;;;13.50;6.90;;;;;;;-11.50;77.81;99896.50;103813;1313;139111;-68
2021/12/22 03:53:31;;;;;;;13.70;7.10;;;;;;;-11.49;77.53;99904.67;102508;1317;24375;-68
2021/12/22 03:55:59;;;;;;;13.70;8.10;;;;;;;-11.47;77.67;99903.68;102490;1313;138965;-68
2021/12/22 03:58:28;;;;;;;13.30;7.20;;;;;;;-11.44;77.67;99908.05;102600;1313;25463;-68
2021/12/22 04:00:56;;;;;;;13.70;8.00;;;;;;;-11.43;77.59;99914.82;102571;1313;22624;-68
2021/12/22 04:03:28;;;;;;;18.80;8.40;;;;;;;-11.43;77.55;99910.05;106442;1317;138974;-69
2021/12/22 04:05:56;;;;;;;21.30;7.90;;;;;;;-11.41;77.40;99914.67;106580;1313;23535;-70
2021/12/22 04:08:24;;;;;;;19.20;8.40;;;;;;;-11.41;77.48;99915.01;106453;1318;139210;-70
2021/12/22 04:10:52;;;;;;;19.10;7.50;;;;;;;-11.40;77.78;99916.52;106538;1313;22407;-70
2021/12/22 04:13:20;;;;;;;12.50;7.80;;;;;;;-11.38;77.67;99913.39;106435;1313;140026;-70
2021/12/22 04:16:01;;;;;;;18.50;8.20;;;;;;;-11.34;77.74;99912.74;106562;1313;23360;-70
2021/12/22 04:18:29;;;;;;;13.60;7.00;;;;;;;-11.29;77.73;99911.20;106615;1313;22273;-71
2021/12/22 04:20:57;;;;;;;15.70;8.60;;;;;;;-11.25;77.77;99918.97;106427;1313;138869;-70
2021/12/22 04:23:44;;;;;;;;;;;;;;;-11.19;77.68;99919.39;106551;1313;22543;-68
2021/12/22 04:26:13;;;;;;;19.70;9.40;;;;;;;-11.15;77.70;99918.55;106495;1313;125455;-67
2021/12/22 04:28:40;;;;;;;18.90;8.40;;;;;;;-11.11;77.71;99919.64;106544;1314;22488;-68
2021/12/22 04:31:08;;;;;;;16.90;7.10;;;;;;;-11.07;77.66;99917.44;106567;1317;22540;-67
2021/12/22 04:33:36;;;;;;;19.80;10.30;;;;;;;-11.02;77.79;99921.80;106487;1313;138452;-68
2021/12/22 04:36:04;;;;;;;18.30;8.60;;;;;;;-11.00;77.50;99922.54;106580;1319;22537;-67
2021/12/22 04:38:32;;;;;;;14.20;6.30;;;;;;;-10.96;77.38;99927.04;106439;1317;139516;-67
2021/12/22 04:41:00;;;;;;;13.30;7.10;;;;;;;-10.95;77.15;99927.42;106538;1313;22480;-67
2021/12/22 04:43:28;;;;;;;15.10;6.40;;;;;;;-10.98;77.17;99928.70;106458;1313;139153;-67
2021/12/22 04:45:56;;;;;;;11.80;6.00;;;;;;;-10.97;77.22;99929.38;102683;1313;24220;-66
2021/12/22 04:50:32;;;;;;;11.70;6.20;;;;;;;-10.92;76.92;99934.21;99352;1356;545998;-66
2021/12/22 04:53:16;;;;;;;13.90;7.50;;;;;;;-10.89;76.91;99943.80;101292;1325;25228;-67
2021/12/22 04:55:45;;;;;;;14.30;6.90;;;;;;;-10.85;76.96;99945.69;101225;1325;138288;-64
2021/12/22 04:58:13;;;;;;;15.30;7.40;;;;;;;-10.86;76.88;99943.42;105245;1326;24635;-65
2021/12/22 05:00:40;;;;;;;16.60;7.50;;;;;;;-10.83;77.01;99950.77;105361;1325;22515;-65
2021/12/22 05:03:08;;;;;;;18.70;8.70;;;;;;;-10.84;77.03;99949.94;105121;1325;138937;-65
2021/12/22 05:05:36;;;;;;;21.00;7.80;;;;;;;-10.85;76.62;99953.92;105684;1325;22456;-65
2021/12/22 05:08:04;;;;;;;15.60;8.30;;;;;;;-10.88;76.57;99947.13;105551;1325;138392;-64
2021/12/22 05:10:33;;;;;;;15.50;7.00;;;;;;;-10.91;76.28;99952.90;106247;1316;22600;-64
2021/12/22 05:13:01;;;;;;;18.40;8.30;;;;;;;-10.96;76.23;99952.76;106306;1315;22514;-66
2021/12/22 05:15:39;;;;;;;18.20;8.20;;;;;;;-11.02;76.18;99953.90;106177;1315;138216;-66
2021/12/22 05:18:47;;;;;;;16.70;8.80;;;;;;;-11.08;76.12;99956.42;106285;1316;22492;-65
2021/12/22 05:21:13;;;;;;;18.00;8.90;;;;;;;-11.13;76.18;99960.45;106191;1316;138648;-65
2021/12/22 05:23:41;;;;;;;20.90;9.60;;;;;;;-11.14;76.38;99963.40;106321;1316;23428;-65
2021/12/22 05:26:08;;;;;;;25.60;9.40;;;;;;;-11.16;76.48;99969.98;106021;1316;138326;-69
2021/12/22 05:28:36;;;;;;;22.10;9.30;;;;;;;-11.17;76.23;99976.23;106214;1316;22537;-69
2021/12/22 05:31:12;;;;;;;18.20;8.50;;;;;;;-11.20;76.15;99978.70;106237;1319;22405;-69
2021/12/22 05:33:41;;;;;;;20.70;7.90;;;;;;;-11.22;76.35;99976.55;106162;1315;139025;-69
2021/12/22 05:36:08;;;;;;;14.80;7.60;;;;;;;-11.19;76.47;99978.11;106290;1316;22919;-69
2021/12/22 05:38:37;;;;;;;19.70;8.00;;;;;;;-11.15;76.41;99979.27;105862;1320;138368;-69
2021/12/22 05:41:05;;;;;;;21.80;9.80;;;;;;;-11.14;76.51;99983.55;106234;1316;23259;-69
2021/12/22 05:43:32;;;;;;;17.80;7.80;;;;;;;-11.14;76.37;99981.62;106196;1315;139042;-69
2021/12/22 05:46:01;;;;;;;19.40;9.40;;;;;;;-11.12;76.43;99987.92;106220;1316;23034;-70
2021/12/22 05:48:29;;;;;;;20.80;9.40;;;;;;;-11.11;76.23;99985.59;106257;1316;22619;-69
2021/12/22 05:50:58;;;;;;;25.20;9.70;;;;;;;-11.11;76.24;99991.39;106445;1313;139202;-70
2021/12/22 05:53:27;;;;;;;22.90;10.30;;;;;;;-11.12;76.27;99990.58;106498;1313;22480;-68
2021/12/22 05:55:55;;;;;;;20.20;8.70;;;;;;;-11.12;76.26;99989.71;106254;1313;139992;-63
2021/12/22 05:58:23;;;;;;;20.30;8.50;;;;;;;-11.13;76.02;99990.79;106526;1312;22359;-63
2021/12/22 06:00:51;;;;;;;19.10;9.30;;;;;;;-11.14;76.06;99995.77;105846;1319;23283;-63
2021/12/22 06:03:19;;;;;;;16.30;8.10;;;;;;;-11.12;76.03;100002.16;106364;1316;138401;-62
2021/12/22 06:05:46;;;;;;;17.60;7.60;;;;;;;-11.13;76.24;100006.77;106409;1318;22465;-63
2021/12/22 06:08:15;;;;;;;17.20;8.70;;;;;;;-11.11;76.09;100009.77;106285;1316;138553;-62
2021/12/22 06:10:42;;;;;;;17.70;8.90;;;;;;;-11.09;76.18;100011.55;106578;1313;22518;-63
2021/12/22 06:13:11;;;;;;;23.60;10.40;;;;;;;-11.09;75.92;100012.75;106534;1312;22525;-63
2021/12/22 06:15:39;;;;;;;19.90;8.20;;;;;;;-11.10;75.85;100022.70;106309;1318;138807;-63
2021/12/22 06:18:07;;;;;;;17.10;8.80;;;;;;;-11.12;75.68;100026.38;106455;1312;23456;-64
2021/12/22 06:20:41;;;;;;;21.10;9.20;;;;;;;-11.12;75.39;100029.87;106398;1312;138409;-65
2021/12/22 06:23:09;;;;;;;16.30;7.70;;;;;;;-11.13;75.34;100029.55;106472;1313;22626;-64
2021/12/22 06:25:37;;;;;;;26.90;10.10;;;;;;;-11.13;75.26;100034.52;105675;1312;138715;-58
2021/12/22 06:28:05;;;;;;;17.40;8.20;;;;;;;-11.14;74.99;100037.36;102390;1312;23123;-59
2021/12/22 06:30:33;;;;;;;20.60;8.00;;;;;;;-11.15;74.95;100039.21;102430;1312;22580;-60
2021/12/22 06:33:01;;;;;;;15.80;6.70;;;;;;;-11.18;74.75;100038.01;102308;1313;140905;-59
2021/12/22 06:35:29;;;;;;;12.40;5.20;;;;;;;-11.19;74.35;100047.56;105989;1312;23328;-60
2021/12/22 06:37:57;;;;;;;7.00;4.40;;;;;;;-11.21;74.24;100050.86;106428;1312;139148;-60
2021/12/22 06:40:25;;;;;;;9.20;5.00;;;;;;;-11.23;75.04;100051.15;106395;1313;23205;-59
2021/12/22 06:42:53;;;;;;;10.90;5.00;;;;;;;-11.23;75.11;100055.52;106443;1317;23087;-59
2021/12/22 06:45:22;;;;;;;10.30;4.60;;;;;;;-11.25;74.66;100062.31;105500;1313;139957;-60
2021/12/22 06:47:50;;;;;;;11.50;4.90;;;;;;;-11.26;74.69;100064.70;106333;1313;23441;-61
2021/12/22 06:50:18;;;;;;;11.00;4.30;;;;;;;-11.25;74.63;100069.36;106313;1312;140269;-60
2021/12/22 06:52:46;;;;;;;8.70;4.00;;;;;;;-11.24;74.44;100068.92;106466;1312;23275;-60
2021/12/22 06:55:14;;;;;;;13.30;4.90;;;;;;;-11.25;74.22;100074.95;106444;1312;23294;-60
2021/12/22 06:57:42;;;;;;;11.20;4.70;;;;;;;-11.24;73.96;100072.77;106342;1313;155810;-60
2021/12/22 07:00:11;;;;;;;15.30;5.30;;;;;;;-11.21;74.48;100072.91;106504;1313;22464;-60
2021/12/22 07:02:40;;;;;;;6.60;3.70;;;;;;;-11.17;74.61;100075.59;106299;1313;139525;-60
2021/12/22 07:05:17;;;;;;;10.90;4.80;;;;;;;-11.12;74.31;100079.51;106315;1315;23276;-60
2021/12/22 07:07:45;;;;;;;8.50;4.30;;;;;;;-11.12;74.13;100083.00;106311;1313;138607;-60
2021/12/22 07:10:13;;;;;;;9.10;3.80;;;;;;;-11.13;74.33;100082.72;106541;1316;22261;-60
2021/12/22 07:12:42;;;;;;;8.70;4.70;;;;;;;-11.13;74.43;100084.08;106490;1312;22440;-60
2021/12/22 07:15:11;;;;;;;9.80;4.70;;;;;;;-11.11;74.41;100081.48;106435;1316;138652;-60
2021/12/22 07:17:40;;;;;;;9.10;4.90;;;;;;;-11.10;74.55;100074.05;106524;1312;25794;-60
2021/12/22 07:20:09;;;;;;;10.10;4.60;;;;;;;-11.05;74.84;100081.46;106387;1312;139425;-61
2021/12/22 07:22:38;;;;;;;11.20;4.40;;;;;;;-11.02;75.30;100080.58;106428;1312;22410;-61
2021/12/22 07:25:07;;;;;;;12.40;4.50;;;;;;;-10.99;76.28;100081.25;106428;1312;23238;-61
2021/12/22 07:27:36;;;;;;;15.20;4.90;;;;;;;-10.98;76.66;100079.61;106438;1314;138285;-60
2021/12/22 07:30:05;;;;;;;12.00;5.50;;;;;;;-10.97;77.01;100082.14;106623;1313;22463;-61
2021/12/22 07:32:33;;;;;;;13.10;6.50;;;;;;;-10.95;76.66;100081.63;106433;1313;138463;-61
2021/12/22 07:35:10;;;;;;;16.90;7.20;;;;;;;-10.94;76.71;100091.02;106564;1312;22537;-61
2021/12/22 07:37:41;;;;;;;14.50;5.30;;;;;;;-10.91;76.04;100098.19;106245;1317;139917;-59
2021/12/22 07:40:11;;;;;;;10.40;5.70;;;;;;;-10.90;75.11;100096.19;106550;1312;22478;-59
2021/12/22 07:42:39;;;;;;;12.60;5.90;;;;;;;-10.93;74.93;100096.38;104078;1312;22807;-59
2021/12/22 07:45:08;;;;;;;11.90;5.80;;;;;;;-10.94;74.81;100099.94;102413;1312;138512;-58
2021/12/22 07:47:37;;;;;;;12.60;6.00;;;;;;;-10.94;74.15;100102.92;106523;1313;23294;-59
2021/12/22 07:50:06;;;;;;;15.70;6.20;;;;;;;-10.96;74.18;100099.05;106459;1312;140078;-60
2021/12/22 07:52:34;;;;;;;16.50;7.20;;;;;;;-10.96;74.02;100103.11;106486;1312;23470;-60
2021/12/22 07:55:02;;;;;;;13.50;6.30;;;;;;;-10.94;74.11;100101.70;106455;1312;22436;-59
2021/12/22 07:57:30;;;;;;;14.90;6.50;;;;;;;-10.92;74.33;100103.70;106380;1316;139359;-60
2021/12/22 07:59:58;;;;;;;20.40;7.10;;;;;;;-10.92;74.12;100103.83;106469;1312;22433;-60
2021/12/22 08:02:26;;;;;;;16.10;8.10;;;;;;;-10.92;74.64;100102.45;106364;1313;138897;-60
2021/12/22 08:04:54;;;;;;;14.90;5.80;;;;;;;-10.89;74.97;100099.41;106589;1312;23457;-60
2021/12/22 08:07:22;;;;;;;12.20;6.80;;;;;;;-10.87;74.66;100097.20;106415;1310;139448;-60
2021/12/22 08:09:50;;;;;;;10.30;6.00;;;;;;;-10.86;74.62;100095.02;106459;1312;23137;-60
2021/12/22 08:12:17;;;;;;;21.30;8.70;;;;;;;-10.84;73.76;100091.54;106533;1311;22267;-60
2021/12/22 08:14:45;;;;;;;11.10;6.10;;;;;;;-10.82;74.35;100095.75;106338;1313;140520;-60
2021/12/22 08:17:13;;;;;;;18.30;8.00;;;;;;;-10.80;74.03;100090.85;106473;1312;22443;-60
2021/12/22 08:19:41;;;;;;;13.70;6.70;;;;;;;-10.78;73.27;100093.21;106316;1312;138931;-60
2021/12/22 08:22:09;;;;;;;11.90;6.60;;;;;;;-10.77;73.02;100095.58;106408;1313;23592;-60
2021/12/22 08:24:37;;;;;;;11.80;5.90;;;;;;;-10.75;72.72;100093.67;106497;1312;22492;-60
2021/12/22 08:27:05;;;;;;;8.20;4.60;;;;;;;-10.72;72.95;100097.87;106406;1312;140024;-60
2021/12/22 08:29:33;;;;;;;11.50;4.90;;;;;;;-10.72;75.18;100098.41;106081;1317;22529;-60
2021/12/22 08:32:01;;;;;;;6.80;4.10;;;;;;;-10.73;75.53;100100.92;106481;1312;139779;-60
2021/12/22 08:34:34;;;;;;;7.80;4.20;;;;;;;-10.74;75.13;100099.58;106141;1313;22363;-60
2021/12/22 08:39:50;;;;;;;6.30;3.40;;;;;;;-10.71;73.93;100101.11;106369;1312;140136;-60
2021/12/22 08:42:18;;;;;;;10.60;4.80;;;;;;;-10.69;74.22;100106.80;106437;1313;22418;-59
2021/12/22 08:44:46;;;;;;;9.30;4.60;;;;;;;-10.66;74.40;100104.84;106379;1312;139967;-60
2021/12/22 08:47:15;;;;;;;11.70;6.30;;;;;;;-10.62;74.06;100102.45;106456;1312;22506;-60
2021/12/22 08:49:43;;;;;;;10.60;5.60;;;;;;;-10.58;73.12;100099.70;106363;1312;140503;-60
2021/12/22 08:52:11;;;;;;;15.40;7.70;;;;;;;-10.55;73.21;100094.19;106518;1312;23248;-60
2021/12/22 08:54:39;;;;;;;15.90;8.90;;;;;;;-10.44;72.80;100103.41;106433;1312;23229;-60
2021/12/22 08:57:07;;;;;;;22.10;10.20;;;;;;;-10.39;72.15;100104.90;103243;1312;139577;-59
2021/12/22 08:59:35;;;;;;;17.00;9.10;;;;;;;-10.32;71.92;100103.80;106097;1312;24111;-60
2021/12/22 09:02:04;;;;;;;8.80;5.80;;;;;;;-10.29;71.23;100105.84;106540;1316;139850;-60
2021/12/22 09:04:32;;;;;;;8.70;5.60;;;;;;;-10.28;71.12;100107.88;106574;1313;22509;-60
2021/12/22 09:07:00;;;;;;;9.90;5.80;;;;;;;-10.28;70.73;100103.98;106467;1312;24383;-60
2021/12/22 09:09:30;;;;;;;10.00;5.70;;;;;;;-10.27;70.74;100108.32;106489;1312;138907;-60
2021/12/22 09:11:58;;;;;;;13.80;6.20;;;;;;;-10.25;70.52;100102.58;106550;1312;22464;-60
2021/12/22 09:14:26;;;;;;;14.60;9.30;;;;;;;-10.20;70.93;100110.39;106520;1312;138656;-60
2021/12/22 09:16:54;;;;;;;21.10;12.90;;;;;;;-10.14;70.96;100115.55;106667;1312;23229;-60
2021/12/22 09:19:23;;;;;;;30.60;15.90;;;;;;;-10.09;71.08;100111.33;106672;1312;22466;-59
2021/12/22 09:21:51;;;;;;;33.00;16.30;;;;;;;-10.07;71.16;100108.00;106508;1312;139279;-60
2021/12/22 09:24:19;;;;;;;57.80;26.40;;;;;;;-10.00;71.02;100111.36;106527;1312;23462;-60
2021/12/22 09:26:47;;;;;;;61.30;27.60;;;;;;;-9.96;70.99;100116.54;106566;1313;140393;-60
2021/12/22 09:29:15;;;;;;;35.60;16.90;;;;;;;-9.92;71.19;100106.95;106546;1312;23306;-60
2021/12/22 09:31:44;;;;;;;57.50;25.10;;;;;;;-9.87;71.56;100108.64;106517;1314;140576;-60
2021/12/22 09:34:12;;;;;;;75.70;33.90;;;;;;;-9.80;71.36;100106.35;106161;1312;22420;-60
2021/12/22 09:36:42;;;;;;;63.20;27.20;;;;;;;-9.75;71.07;100100.33;106622;1312;23324;-60
2021/12/22 09:39:11;;;;;;;52.90;21.80;;;;;;;-9.71;70.32;100102.54;106506;1310;138783;-60
2021/12/22 09:41:39;;;;;;;60.90;26.30;;;;;;;-9.74;70.11;100095.49;106635;1313;23244;-60
2021/12/22 09:44:07;;;;;;;47.30;20.90;;;;;;;-9.74;69.97;100095.50;106351;1312;139131;-60
2021/12/22 09:46:38;;;;;;;41.40;18.20;;;;;;;-9.73;69.95;100091.38;106586;1312;22596;-60
2021/12/22 09:49:23;;;;;;;32.00;15.30;;;;;;;-9.69;70.22;100085.84;106610;1312;22958;-60
2021/12/22 09:54:41;;;;;;;18.40;7.30;;;;;;;-9.60;70.15;100080.98;106471;1312;22673;-60
2021/12/22 09:57:10;;;;;;;17.60;7.30;;;;;;;-9.59;70.27;100082.27;102829;1312;139832;-59
2021/12/22 09:59:39;;;;;;;11.40;6.60;;;;;;;-9.58;69.98;100077.31;106643;1312;23182;-60
2021/12/22 10:02:07;;;;;;;14.80;7.00;;;;;;;-9.60;69.99;100079.88;106203;1315;139644;-60
2021/12/22 10:04:35;;;;;;;13.90;6.00;;;;;;;-9.58;69.79;100077.15;106650;1313;22473;-60
2021/12/22 10:07:07;;;;;;;11.70;5.70;;;;;;;-9.58;69.60;100078.35;106667;1312;22473;-60
2021/12/22 10:09:44;;;;;;;12.70;6.60;;;;;;;-9.60;69.65;100073.77;106426;1312;138527;-59
2021/12/22 10:12:19;;;;;;;16.50;6.40;;;;;;;-9.61;69.84;100076.98;106626;1313;22434;-60
2021/12/22 10:15:01;;;;;;;13.70;6.90;;;;;;;-9.60;69.91;100074.61;106280;1313;139695;-59
2021/12/22 10:17:41;;;;;;;13.30;6.80;;;;;;;-9.57;69.96;100073.54;106697;1312;22496;-60
2021/12/22 10:20:17;;;;;;;13.20;6.90;;;;;;;-9.55;69.73;100069.49;106396;1312;139008;-60
2021/12/22 10:22:47;;;;;;;13.20;6.10;;;;;;;-9.57;69.24;100072.77;106532;1312;22491;-60
2021/12/22 10:25:17;;;;;;;10.20;5.30;;;;;;;-9.61;69.11;100069.78;106488;1312;25338;-59
2021/12/22 10:27:47;;;;;;;12.30;5.60;;;;;;;-9.68;68.85;100073.65;102342;1312;139476;-58
2021/12/22 10:30:31;;;;;;;10.90;5.50;;;;;;;-9.72;68.91;100074.63;102281;1312;22651;-58
2021/12/22 10:33:23;;;;;;;16.20;5.60;;;;;;;-9.73;69.40;100074.50;106477;1313;138745;-60
2021/12/22 10:35:59;;;;;;;11.60;6.20;;;;;;;-9.71;69.31;100070.53;106568;1312;22469;-60
2021/12/22 10:38:30;;;;;;;17.20;7.20;;;;;;;-9.70;69.56;100070.80;106238;1312;138924;-59
2021/12/22 10:41:02;;;;;;;13.60;6.30;;;;;;;-9.64;70.24;100058.02;106585;1312;22506;-59
2021/12/22 10:43:32;;;;;;;10.40;6.70;;;;;;;-9.51;70.73;100062.14;106221;1312;142172;-59
2021/12/22 10:46:03;;;;;;;11.60;5.10;;;;;;;-9.38;70.51;100061.48;106586;1314;22483;-60
2021/12/22 10:51:33;;;;;;;10.70;5.70;;;;;;;-9.18;69.78;100064.70;106565;1314;138589;-60
2021/12/22 10:54:01;;;;;;;14.40;5.90;;;;;;;-9.15;69.51;100074.67;106711;1312;22481;-60
2021/12/22 10:56:31;;;;;;;9.60;5.60;;;;;;;-9.16;69.29;100072.98;106440;1312;139215;-58
2021/12/22 10:59:00;;;;;;;11.90;5.50;;;;;;;-9.18;69.45;100071.69;103135;1312;25326;-57
2021/12/22 11:01:29;;;;;;;15.20;8.00;;;;;;;-9.16;69.14;100074.52;106561;1312;139504;-58
2021/12/22 11:04:05;;;;;;;16.90;7.60;;;;;;;-9.13;69.80;100072.70;106689;1312;23374;-58
2021/12/22 11:06:34;;;;;;;14.30;7.30;;;;;;;-9.06;69.93;100074.06;106666;1313;22248;-57
2021/12/22 11:09:13;;;;;;;12.20;6.00;;;;;;;-8.99;69.58;100070.56;106198;1313;138684;-58
2021/12/22 11:11:48;;;;;;;12.60;6.00;;;;;;;-8.94;69.76;100071.59;106642;1312;22433;-58
2021/12/22 11:14:17;;;;;;;10.60;5.50;;;;;;;-8.92;69.26;100070.19;106543;1312;138522;-57
2021/12/22 11:17:07;;;;;;;11.90;5.50;;;;;;;-8.93;68.62;100065.51;106502;1313;22457;-58
2021/12/22 11:19:37;;;;;;;10.80;5.30;;;;;;;-8.99;68.22;100067.27;106390;1312;139320;-58
2021/12/22 11:22:14;;;;;;;8.30;4.80;;;;;;;-9.04;68.35;100068.50;106418;1312;22417;-58
2021/12/22 11:24:43;;;;;;;9.20;4.20;;;;;;;-9.08;67.82;100069.89;106523;1313;22574;-58
2021/12/22 11:27:14;;;;;;;26.40;4.60;;;;;;;-9.17;67.30;100066.87;106485;1312;139393;-59
2021/12/22 11:29:44;;;;;;;8.00;4.30;;;;;;;-9.26;67.22;100066.34;106334;1312;23563;-58
2021/12/22 11:32:17;;;;;;;10.80;5.20;;;;;;;-9.31;67.35;100066.19;106406;1312;139559;-58
2021/12/22 11:34:50;;;;;;;10.00;5.20;;;;;;;-9.35;67.43;100059.80;106615;1313;22560;-58
2021/12/22 11:37:18;;;;;;;7.50;4.70;;;;;;;-9.37;67.74;100061.91;103097;1314;22550;-59
2021/12/22 11:39:46;;;;;;;10.00;4.70;;;;;;;-9.38;67.59;100065.67;102448;1313;139385;-59